sensor_id;sensor_type;location;lat;lon;timestamp;P1;durP1;ratioP1;P2;durP2;ratioP2
35324;SDS011;35135;47.510;19.036;2023-05-10T00:00:32;1.90;;;1.48;;
35324;SDS011;35135;47.510;19.036;2023-05-10T00:02:58;2.28;;;1.30;;
35324;SDS011;35135;47.510;19.036;2023-05-10T00:05:23;1.80;;;1.30;;
35324;SDS011;35135;47.510;19.036;2023-05-10T00:07:49;1.70;;;1.30;;
35324;SDS011;35135;47.510;19.036;2023-05-10T00:10:15;3.30;;;1.70;;
35324;SDS011;35135;47.510;19.036;2023-05-10T00:12:41;2.00;;;1.45;;
35324;SDS011;35135;47.510;19.036;2023-05-10T00:15:07;1.50;;;1.40;;
35324;SDS011;35135;47.510;19.036;2023-05-10T00:17:33;1.40;;;1.05;;
35324;SDS011;35135;47.510;19.036;2023-05-10T00:19:59;2.25;;;1.45;;
35324;SDS011;35135;47.510;19.036;2023-05-10T00:22:25;1.48;;;1.20;;
35324;SDS011;35135;47.510;19.036;2023-05-10T00:24:51;2.30;;;1.33;;
35324;SDS011;35135;47.510;19.036;2023-05-10T00:27:16;1.52;;;1.40;;
35324;SDS011;35135;47.510;19.036;2023-05-10T00:29:42;2.08;;;1.30;;
35324;SDS011;35135;47.510;19.036;2023-05-10T00:32:08;1.73;;;1.45;;
35324;SDS011;35135;47.510;19.036;2023-05-10T00:34:33;1.75;;;1.30;;
35324;SDS011;35135;47.510;19.036;2023-05-10T00:36:59;1.60;;;1.30;;
35324;SDS011;35135;47.510;19.036;2023-05-10T00:39:25;1.50;;;1.20;;
35324;SDS011;35135;47.510;19.036;2023-05-10T00:41:51;1.80;;;1.23;;
35324;SDS011;35135;47.510;19.036;2023-05-10T00:44:17;2.28;;;1.20;;
35324;SDS011;35135;47.510;19.036;2023-05-10T00:46:43;1.30;;;1.02;;
35324;SDS011;35135;47.510;19.036;2023-05-10T00:49:10;3.13;;;1.50;;
35324;SDS011;35135;47.510;19.036;2023-05-10T00:51:36;2.00;;;1.13;;
35324;SDS011;35135;47.510;19.036;2023-05-10T00:54:02;1.50;;;1.27;;
35324;SDS011;35135;47.510;19.036;2023-05-10T00:56:28;1.30;;;1.20;;
35324;SDS011;35135;47.510;19.036;2023-05-10T00:58:55;1.70;;;1.40;;
35324;SDS011;35135;47.510;19.036;2023-05-10T01:01:20;1.95;;;1.20;;
35324;SDS011;35135;47.510;19.036;2023-05-10T01:03:46;1.60;;;1.33;;
35324;SDS011;35135;47.510;19.036;2023-05-10T01:06:12;1.45;;;1.27;;
35324;SDS011;35135;47.510;19.036;2023-05-10T01:08:38;3.15;;;1.42;;
35324;SDS011;35135;47.510;19.036;2023-05-10T01:11:04;2.22;;;1.20;;
35324;SDS011;35135;47.510;19.036;2023-05-10T01:13:31;1.30;;;1.17;;
35324;SDS011;35135;47.510;19.036;2023-05-10T01:15:59;1.70;;;1.30;;
35324;SDS011;35135;47.510;19.036;2023-05-10T01:18:28;1.90;;;1.33;;
35324;SDS011;35135;47.510;19.036;2023-05-10T01:27:13;1.58;;;1.23;;
35324;SDS011;35135;47.510;19.036;2023-05-10T01:35:32;1.77;;;1.25;;
35324;SDS011;35135;47.510;19.036;2023-05-10T01:38:21;1.73;;;1.40;;
35324;SDS011;35135;47.510;19.036;2023-05-10T01:41:13;1.42;;;1.23;;
35324;SDS011;35135;47.510;19.036;2023-05-10T01:43:42;1.55;;;1.10;;
35324;SDS011;35135;47.510;19.036;2023-05-10T01:46:33;1.35;;;1.25;;
35324;SDS011;35135;47.510;19.036;2023-05-10T01:49:08;2.50;;;1.10;;
35324;SDS011;35135;47.510;19.036;2023-05-10T01:51:41;1.67;;;1.20;;
35324;SDS011;35135;47.510;19.036;2023-05-10T01:54:12;1.45;;;1.10;;
35324;SDS011;35135;47.510;19.036;2023-05-10T01:56:42;1.73;;;1.42;;
35324;SDS011;35135;47.510;19.036;2023-05-10T01:59:15;1.63;;;1.15;;
35324;SDS011;35135;47.510;19.036;2023-05-10T02:01:43;1.20;;;1.10;;
35324;SDS011;35135;47.510;19.036;2023-05-10T02:04:12;1.67;;;1.45;;
35324;SDS011;35135;47.510;19.036;2023-05-10T02:06:41;1.55;;;1.10;;
35324;SDS011;35135;47.510;19.036;2023-05-10T02:09:09;1.63;;;1.05;;
35324;SDS011;35135;47.510;19.036;2023-05-10T02:11:37;2.15;;;1.23;;
35324;SDS011;35135;47.510;19.036;2023-05-10T02:14:05;1.35;;;1.08;;
35324;SDS011;35135;47.510;19.036;2023-05-10T02:16:34;1.42;;;1.05;;
35324;SDS011;35135;47.510;19.036;2023-05-10T02:19:01;1.17;;;1.08;;
35324;SDS011;35135;47.510;19.036;2023-05-10T02:21:27;3.10;;;1.30;;
35324;SDS011;35135;47.510;19.036;2023-05-10T02:23:54;1.45;;;1.00;;
35324;SDS011;35135;47.510;19.036;2023-05-10T02:26:21;1.92;;;1.35;;
35324;SDS011;35135;47.510;19.036;2023-05-10T02:28:49;2.00;;;1.30;;
35324;SDS011;35135;47.510;19.036;2023-05-10T02:31:16;1.23;;;1.08;;
35324;SDS011;35135;47.510;19.036;2023-05-10T02:33:43;2.30;;;1.45;;
35324;SDS011;35135;47.510;19.036;2023-05-10T02:36:09;1.20;;;0.95;;
35324;SDS011;35135;47.510;19.036;2023-05-10T02:38:37;1.08;;;0.98;;
35324;SDS011;35135;47.510;19.036;2023-05-10T02:41:05;1.13;;;1.02;;
35324;SDS011;35135;47.510;19.036;2023-05-10T02:43:32;1.23;;;1.13;;
35324;SDS011;35135;47.510;19.036;2023-05-10T02:45:59;1.60;;;1.10;;
35324;SDS011;35135;47.510;19.036;2023-05-10T02:48:25;1.95;;;1.20;;
35324;SDS011;35135;47.510;19.036;2023-05-10T02:50:51;1.13;;;0.85;;
35324;SDS011;35135;47.510;19.036;2023-05-10T02:53:22;2.22;;;1.55;;
35324;SDS011;35135;47.510;19.036;2023-05-10T02:55:49;2.63;;;1.27;;
35324;SDS011;35135;47.510;19.036;2023-05-10T02:58:19;1.20;;;1.10;;
35324;SDS011;35135;47.510;19.036;2023-05-10T03:00:45;1.45;;;1.27;;
35324;SDS011;35135;47.510;19.036;2023-05-10T03:03:11;1.70;;;1.00;;
35324;SDS011;35135;47.510;19.036;2023-05-10T03:05:37;1.45;;;1.20;;
35324;SDS011;35135;47.510;19.036;2023-05-10T03:08:02;1.30;;;1.20;;
35324;SDS011;35135;47.510;19.036;2023-05-10T03:10:29;1.25;;;1.10;;
35324;SDS011;35135;47.510;19.036;2023-05-10T03:13:16;2.30;;;1.42;;
35324;SDS011;35135;47.510;19.036;2023-05-10T03:16:15;1.40;;;1.20;;
35324;SDS011;35135;47.510;19.036;2023-05-10T03:18:58;1.20;;;1.08;;
35324;SDS011;35135;47.510;19.036;2023-05-10T03:21:54;1.90;;;1.40;;
35324;SDS011;35135;47.510;19.036;2023-05-10T03:24:24;1.20;;;1.05;;
35324;SDS011;35135;47.510;19.036;2023-05-10T03:26:53;1.33;;;1.10;;
35324;SDS011;35135;47.510;19.036;2023-05-10T03:29:22;1.40;;;1.20;;
35324;SDS011;35135;47.510;19.036;2023-05-10T03:31:50;1.70;;;1.30;;
35324;SDS011;35135;47.510;19.036;2023-05-10T03:34:16;1.45;;;1.35;;
35324;SDS011;35135;47.510;19.036;2023-05-10T03:36:42;2.10;;;1.35;;
35324;SDS011;35135;47.510;19.036;2023-05-10T03:39:08;0.95;;;0.82;;
35324;SDS011;35135;47.510;19.036;2023-05-10T03:41:33;1.42;;;1.17;;
35324;SDS011;35135;47.510;19.036;2023-05-10T03:43:59;1.55;;;1.45;;
35324;SDS011;35135;47.510;19.036;2023-05-10T03:46:25;1.65;;;1.20;;
35324;SDS011;35135;47.510;19.036;2023-05-10T03:48:50;1.58;;;1.25;;
35324;SDS011;35135;47.510;19.036;2023-05-10T03:51:16;2.10;;;1.10;;
35324;SDS011;35135;47.510;19.036;2023-05-10T03:53:42;1.80;;;1.25;;
35324;SDS011;35135;47.510;19.036;2023-05-10T03:56:08;1.40;;;1.30;;
35324;SDS011;35135;47.510;19.036;2023-05-10T03:58:33;2.80;;;1.55;;
35324;SDS011;35135;47.510;19.036;2023-05-10T04:00:59;1.60;;;1.20;;
35324;SDS011;35135;47.510;19.036;2023-05-10T04:03:24;1.23;;;1.13;;
35324;SDS011;35135;47.510;19.036;2023-05-10T04:05:58;1.63;;;1.30;;
35324;SDS011;35135;47.510;19.036;2023-05-10T04:08:25;1.73;;;1.27;;
35324;SDS011;35135;47.510;19.036;2023-05-10T04:10:51;1.52;;;1.42;;
35324;SDS011;35135;47.510;19.036;2023-05-10T04:13:16;2.45;;;1.40;;
35324;SDS011;35135;47.510;19.036;2023-05-10T04:15:42;1.38;;;1.25;;
35324;SDS011;35135;47.510;19.036;2023-05-10T04:18:08;1.10;;;1.00;;
35324;SDS011;35135;47.510;19.036;2023-05-10T04:20:35;2.15;;;1.35;;
35324;SDS011;35135;47.510;19.036;2023-05-10T04:23:00;2.30;;;1.10;;
35324;SDS011;35135;47.510;19.036;2023-05-10T04:25:26;1.33;;;1.15;;
35324;SDS011;35135;47.510;19.036;2023-05-10T04:27:52;2.55;;;1.30;;
35324;SDS011;35135;47.510;19.036;2023-05-10T04:30:17;1.77;;;1.33;;
35324;SDS011;35135;47.510;19.036;2023-05-10T04:32:43;1.70;;;1.40;;
35324;SDS011;35135;47.510;19.036;2023-05-10T04:35:09;1.98;;;1.40;;
35324;SDS011;35135;47.510;19.036;2023-05-10T04:37:35;1.92;;;1.40;;
35324;SDS011;35135;47.510;19.036;2023-05-10T04:40:02;1.40;;;1.08;;
35324;SDS011;35135;47.510;19.036;2023-05-10T04:42:28;1.45;;;1.02;;
35324;SDS011;35135;47.510;19.036;2023-05-10T04:44:54;1.20;;;1.10;;
35324;SDS011;35135;47.510;19.036;2023-05-10T04:47:19;1.60;;;1.40;;
35324;SDS011;35135;47.510;19.036;2023-05-10T04:49:45;1.50;;;1.10;;
35324;SDS011;35135;47.510;19.036;2023-05-10T04:52:11;2.15;;;1.23;;
35324;SDS011;35135;47.510;19.036;2023-05-10T04:54:36;1.08;;;0.93;;
35324;SDS011;35135;47.510;19.036;2023-05-10T04:57:03;1.30;;;1.20;;
35324;SDS011;35135;47.510;19.036;2023-05-10T04:59:29;2.22;;;1.10;;
35324;SDS011;35135;47.510;19.036;2023-05-10T05:01:54;3.28;;;1.30;;
35324;SDS011;35135;47.510;19.036;2023-05-10T05:04:20;1.13;;;1.02;;
35324;SDS011;35135;47.510;19.036;2023-05-10T05:06:48;1.52;;;1.30;;
35324;SDS011;35135;47.510;19.036;2023-05-10T05:09:14;1.85;;;1.38;;
35324;SDS011;35135;47.510;19.036;2023-05-10T05:11:39;1.25;;;1.15;;
35324;SDS011;35135;47.510;19.036;2023-05-10T05:14:05;1.95;;;1.42;;
35324;SDS011;35135;47.510;19.036;2023-05-10T05:16:31;2.45;;;1.30;;
35324;SDS011;35135;47.510;19.036;2023-05-10T05:18:57;1.40;;;1.10;;
35324;SDS011;35135;47.510;19.036;2023-05-10T05:21:22;2.03;;;1.40;;
35324;SDS011;35135;47.510;19.036;2023-05-10T05:23:50;1.98;;;1.20;;
35324;SDS011;35135;47.510;19.036;2023-05-10T05:26:15;3.33;;;1.48;;
35324;SDS011;35135;47.510;19.036;2023-05-10T05:28:41;1.58;;;1.40;;
35324;SDS011;35135;47.510;19.036;2023-05-10T05:31:07;2.65;;;1.35;;
35324;SDS011;35135;47.510;19.036;2023-05-10T05:33:33;2.63;;;1.40;;
35324;SDS011;35135;47.510;19.036;2023-05-10T05:36:02;1.60;;;1.38;;
35324;SDS011;35135;47.510;19.036;2023-05-10T05:38:29;2.00;;;1.45;;
35324;SDS011;35135;47.510;19.036;2023-05-10T05:40:55;1.40;;;1.30;;
35324;SDS011;35135;47.510;19.036;2023-05-10T05:43:21;1.50;;;1.20;;
35324;SDS011;35135;47.510;19.036;2023-05-10T05:45:46;2.42;;;1.40;;
35324;SDS011;35135;47.510;19.036;2023-05-10T05:48:12;2.30;;;1.50;;
35324;SDS011;35135;47.510;19.036;2023-05-10T05:50:38;1.60;;;1.30;;
35324;SDS011;35135;47.510;19.036;2023-05-10T05:53:03;1.50;;;1.35;;
35324;SDS011;35135;47.510;19.036;2023-05-10T05:55:29;1.65;;;1.38;;
35324;SDS011;35135;47.510;19.036;2023-05-10T05:57:56;3.05;;;1.83;;
35324;SDS011;35135;47.510;19.036;2023-05-10T06:00:22;6.05;;;5.22;;
35324;SDS011;35135;47.510;19.036;2023-05-10T06:02:48;6.05;;;5.40;;
35324;SDS011;35135;47.510;19.036;2023-05-10T06:05:14;6.60;;;5.20;;
35324;SDS011;35135;47.510;19.036;2023-05-10T06:07:40;10.18;;;5.28;;
35324;SDS011;35135;47.510;19.036;2023-05-10T06:10:08;5.93;;;4.07;;
35324;SDS011;35135;47.510;19.036;2023-05-10T06:12:35;5.05;;;3.47;;
35324;SDS011;35135;47.510;19.036;2023-05-10T06:15:01;5.65;;;3.78;;
35324;SDS011;35135;47.510;19.036;2023-05-10T06:17:27;4.15;;;3.70;;
35324;SDS011;35135;47.510;19.036;2023-05-10T06:19:53;4.70;;;3.40;;
35324;SDS011;35135;47.510;19.036;2023-05-10T06:22:19;7.13;;;4.07;;
35324;SDS011;35135;47.510;19.036;2023-05-10T06:24:46;5.35;;;3.55;;
35324;SDS011;35135;47.510;19.036;2023-05-10T06:27:12;5.93;;;3.28;;
35324;SDS011;35135;47.510;19.036;2023-05-10T06:29:38;7.32;;;3.40;;
35324;SDS011;35135;47.510;19.036;2023-05-10T06:32:04;3.92;;;3.38;;
35324;SDS011;35135;47.510;19.036;2023-05-10T06:34:29;6.57;;;3.63;;
35324;SDS011;35135;47.510;19.036;2023-05-10T06:36:55;7.40;;;3.95;;
35324;SDS011;35135;47.510;19.036;2023-05-10T06:39:21;6.05;;;3.28;;
35324;SDS011;35135;47.510;19.036;2023-05-10T06:41:47;8.00;;;3.33;;
35324;SDS011;35135;47.510;19.036;2023-05-10T06:44:13;6.55;;;3.78;;
35324;SDS011;35135;47.510;19.036;2023-05-10T06:46:39;4.15;;;2.60;;
35324;SDS011;35135;47.510;19.036;2023-05-10T06:49:04;6.35;;;3.22;;
35324;SDS011;35135;47.510;19.036;2023-05-10T06:51:30;4.78;;;3.05;;
35324;SDS011;35135;47.510;19.036;2023-05-10T06:53:56;4.72;;;2.97;;
35324;SDS011;35135;47.510;19.036;2023-05-10T06:56:21;4.68;;;3.30;;
35324;SDS011;35135;47.510;19.036;2023-05-10T06:58:48;4.85;;;3.30;;
35324;SDS011;35135;47.510;19.036;2023-05-10T07:01:14;4.60;;;3.65;;
35324;SDS011;35135;47.510;19.036;2023-05-10T07:03:40;6.72;;;3.97;;
35324;SDS011;35135;47.510;19.036;2023-05-10T07:06:05;5.07;;;4.20;;
35324;SDS011;35135;47.510;19.036;2023-05-10T07:08:32;5.28;;;4.22;;
35324;SDS011;35135;47.510;19.036;2023-05-10T07:11:02;5.13;;;4.40;;
35324;SDS011;35135;47.510;19.036;2023-05-10T07:13:33;5.50;;;4.30;;
35324;SDS011;35135;47.510;19.036;2023-05-10T07:15:59;4.40;;;3.38;;
35324;SDS011;35135;47.510;19.036;2023-05-10T07:18:25;4.80;;;4.03;;
35324;SDS011;35135;47.510;19.036;2023-05-10T07:20:51;4.18;;;3.78;;
35324;SDS011;35135;47.510;19.036;2023-05-10T07:23:17;4.63;;;3.60;;
35324;SDS011;35135;47.510;19.036;2023-05-10T07:25:46;5.75;;;3.92;;
35324;SDS011;35135;47.510;19.036;2023-05-10T07:28:14;4.30;;;3.72;;
35324;SDS011;35135;47.510;19.036;2023-05-10T07:30:40;5.57;;;3.63;;
35324;SDS011;35135;47.510;19.036;2023-05-10T07:33:06;5.50;;;3.17;;
35324;SDS011;35135;47.510;19.036;2023-05-10T07:35:33;3.70;;;3.40;;
35324;SDS011;35135;47.510;19.036;2023-05-10T07:37:59;4.10;;;3.70;;
35324;SDS011;35135;47.510;19.036;2023-05-10T07:40:25;6.43;;;3.70;;
35324;SDS011;35135;47.510;19.036;2023-05-10T07:42:50;5.18;;;3.83;;
35324;SDS011;35135;47.510;19.036;2023-05-10T07:45:17;4.82;;;3.92;;
35324;SDS011;35135;47.510;19.036;2023-05-10T07:47:43;6.43;;;4.20;;
35324;SDS011;35135;47.510;19.036;2023-05-10T07:50:08;5.60;;;3.83;;
35324;SDS011;35135;47.510;19.036;2023-05-10T07:52:34;5.10;;;3.50;;
35324;SDS011;35135;47.510;19.036;2023-05-10T07:55:00;4.90;;;2.90;;
35324;SDS011;35135;47.510;19.036;2023-05-10T07:57:26;5.55;;;3.45;;
35324;SDS011;35135;47.510;19.036;2023-05-10T07:59:51;4.55;;;3.15;;
35324;SDS011;35135;47.510;19.036;2023-05-10T08:02:17;5.13;;;3.38;;
35324;SDS011;35135;47.510;19.036;2023-05-10T08:04:43;5.20;;;3.20;;
35324;SDS011;35135;47.510;19.036;2023-05-10T08:07:10;3.33;;;3.03;;
35324;SDS011;35135;47.510;19.036;2023-05-10T08:09:35;7.80;;;3.15;;
35324;SDS011;35135;47.510;19.036;2023-05-10T08:12:01;3.30;;;3.00;;
35324;SDS011;35135;47.510;19.036;2023-05-10T08:14:28;4.90;;;3.10;;
35324;SDS011;35135;47.510;19.036;2023-05-10T08:16:54;6.50;;;3.38;;
35324;SDS011;35135;47.510;19.036;2023-05-10T08:19:20;4.25;;;3.28;;
35324;SDS011;35135;47.510;19.036;2023-05-10T08:21:46;5.57;;;3.00;;
35324;SDS011;35135;47.510;19.036;2023-05-10T08:24:12;5.80;;;3.00;;
35324;SDS011;35135;47.510;19.036;2023-05-10T08:26:38;3.63;;;2.75;;
35324;SDS011;35135;47.510;19.036;2023-05-10T08:29:04;5.60;;;2.95;;
35324;SDS011;35135;47.510;19.036;2023-05-10T08:31:30;3.58;;;3.05;;
35324;SDS011;35135;47.510;19.036;2023-05-10T08:33:55;3.92;;;2.80;;
35324;SDS011;35135;47.510;19.036;2023-05-10T08:36:21;3.45;;;2.90;;
35324;SDS011;35135;47.510;19.036;2023-05-10T08:38:52;4.68;;;2.92;;
35324;SDS011;35135;47.510;19.036;2023-05-10T08:41:22;4.63;;;3.15;;
35324;SDS011;35135;47.510;19.036;2023-05-10T08:43:54;3.75;;;3.38;;
35324;SDS011;35135;47.510;19.036;2023-05-10T08:46:21;3.47;;;3.17;;
35324;SDS011;35135;47.510;19.036;2023-05-10T08:48:48;4.45;;;3.20;;
35324;SDS011;35135;47.510;19.036;2023-05-10T08:51:20;4.75;;;3.22;;
35324;SDS011;35135;47.510;19.036;2023-05-10T08:53:51;3.30;;;2.83;;
35324;SDS011;35135;47.510;19.036;2023-05-10T08:56:17;4.63;;;3.28;;
35324;SDS011;35135;47.510;19.036;2023-05-10T08:58:45;6.28;;;3.40;;
35324;SDS011;35135;47.510;19.036;2023-05-10T09:01:11;3.67;;;3.00;;
35324;SDS011;35135;47.510;19.036;2023-05-10T09:03:38;4.18;;;2.65;;
35324;SDS011;35135;47.510;19.036;2023-05-10T09:06:05;4.53;;;3.40;;
35324;SDS011;35135;47.510;19.036;2023-05-10T09:08:31;4.65;;;3.22;;
35324;SDS011;35135;47.510;19.036;2023-05-10T09:10:58;3.65;;;3.35;;
35324;SDS011;35135;47.510;19.036;2023-05-10T09:13:26;5.95;;;3.25;;
35324;SDS011;35135;47.510;19.036;2023-05-10T09:15:53;3.83;;;2.80;;
35324;SDS011;35135;47.510;19.036;2023-05-10T09:18:19;3.95;;;3.10;;
35324;SDS011;35135;47.510;19.036;2023-05-10T09:20:45;4.55;;;3.38;;
35324;SDS011;35135;47.510;19.036;2023-05-10T09:23:10;3.85;;;3.00;;
35324;SDS011;35135;47.510;19.036;2023-05-10T09:25:36;5.65;;;3.72;;
35324;SDS011;35135;47.510;19.036;2023-05-10T09:28:05;4.32;;;2.88;;
35324;SDS011;35135;47.510;19.036;2023-05-10T09:30:32;4.75;;;3.70;;
35324;SDS011;35135;47.510;19.036;2023-05-10T09:32:58;5.95;;;3.50;;
35324;SDS011;35135;47.510;19.036;2023-05-10T09:35:26;7.43;;;3.17;;
35324;SDS011;35135;47.510;19.036;2023-05-10T09:37:54;5.10;;;2.85;;
35324;SDS011;35135;47.510;19.036;2023-05-10T09:40:26;4.38;;;3.13;;
35324;SDS011;35135;47.510;19.036;2023-05-10T09:45:29;3.80;;;3.13;;
35324;SDS011;35135;47.510;19.036;2023-05-10T09:47:56;5.63;;;2.90;;
35324;SDS011;35135;47.510;19.036;2023-05-10T09:50:24;5.20;;;3.00;;
35324;SDS011;35135;47.510;19.036;2023-05-10T09:52:51;4.32;;;2.92;;
35324;SDS011;35135;47.510;19.036;2023-05-10T09:55:22;4.10;;;3.00;;
35324;SDS011;35135;47.510;19.036;2023-05-10T09:57:49;4.53;;;3.03;;
35324;SDS011;35135;47.510;19.036;2023-05-10T10:00:25;4.35;;;3.03;;
35324;SDS011;35135;47.510;19.036;2023-05-10T10:02:58;4.00;;;3.05;;
35324;SDS011;35135;47.510;19.036;2023-05-10T10:05:28;3.83;;;3.35;;
35324;SDS011;35135;47.510;19.036;2023-05-10T10:10:26;4.57;;;3.10;;
35324;SDS011;35135;47.510;19.036;2023-05-10T10:12:53;4.30;;;2.95;;
35324;SDS011;35135;47.510;19.036;2023-05-10T10:15:22;3.33;;;3.03;;
35324;SDS011;35135;47.510;19.036;2023-05-10T10:17:49;3.33;;;2.90;;
35324;SDS011;35135;47.510;19.036;2023-05-10T10:20:15;4.03;;;2.92;;
35324;SDS011;35135;47.510;19.036;2023-05-10T10:22:42;5.15;;;3.45;;
35324;SDS011;35135;47.510;19.036;2023-05-10T10:25:09;3.42;;;3.13;;
35324;SDS011;35135;47.510;19.036;2023-05-10T10:35:51;3.33;;;2.67;;
35324;SDS011;35135;47.510;19.036;2023-05-10T10:38:18;3.47;;;2.60;;
35324;SDS011;35135;47.510;19.036;2023-05-10T10:40:43;3.63;;;2.80;;
35324;SDS011;35135;47.510;19.036;2023-05-10T10:43:27;2.55;;;2.30;;
35324;SDS011;35135;47.510;19.036;2023-05-10T10:46:13;3.00;;;2.70;;
35324;SDS011;35135;47.510;19.036;2023-05-10T10:48:41;3.15;;;2.50;;
35324;SDS011;35135;47.510;19.036;2023-05-10T10:51:12;3.20;;;2.53;;
35324;SDS011;35135;47.510;19.036;2023-05-10T10:53:39;2.42;;;2.20;;
35324;SDS011;35135;47.510;19.036;2023-05-10T10:56:06;3.08;;;1.95;;
35324;SDS011;35135;47.510;19.036;2023-05-10T10:58:34;6.03;;;2.80;;
35324;SDS011;35135;47.510;19.036;2023-05-10T11:01:15;4.38;;;2.30;;
35324;SDS011;35135;47.510;19.036;2023-05-10T11:03:55;4.80;;;2.70;;
35324;SDS011;35135;47.510;19.036;2023-05-10T11:06:30;4.65;;;2.53;;
35324;SDS011;35135;47.510;19.036;2023-05-10T11:08:57;5.88;;;2.33;;
35324;SDS011;35135;47.510;19.036;2023-05-10T11:11:23;3.15;;;2.33;;
35324;SDS011;35135;47.510;19.036;2023-05-10T11:13:49;2.65;;;2.08;;
35324;SDS011;35135;47.510;19.036;2023-05-10T11:16:18;3.55;;;2.40;;
35324;SDS011;35135;47.510;19.036;2023-05-10T11:18:56;4.00;;;2.00;;
35324;SDS011;35135;47.510;19.036;2023-05-10T11:21:22;4.13;;;1.88;;
35324;SDS011;35135;47.510;19.036;2023-05-10T11:23:55;4.85;;;2.08;;
35324;SDS011;35135;47.510;19.036;2023-05-10T11:26:23;3.67;;;2.40;;
35324;SDS011;35135;47.510;19.036;2023-05-10T11:29:07;4.35;;;2.10;;
35324;SDS011;35135;47.510;19.036;2023-05-10T11:31:33;3.55;;;2.00;;
35324;SDS011;35135;47.510;19.036;2023-05-10T11:33:59;3.95;;;2.03;;
35324;SDS011;35135;47.510;19.036;2023-05-10T11:36:29;2.50;;;2.30;;
35324;SDS011;35135;47.510;19.036;2023-05-10T11:38:58;2.90;;;1.83;;
35324;SDS011;35135;47.510;19.036;2023-05-10T11:41:24;5.70;;;2.50;;
35324;SDS011;35135;47.510;19.036;2023-05-10T11:43:50;2.53;;;2.05;;
35324;SDS011;35135;47.510;19.036;2023-05-10T11:46:18;2.55;;;1.92;;
35324;SDS011;35135;47.510;19.036;2023-05-10T11:48:55;2.30;;;1.88;;
35324;SDS011;35135;47.510;19.036;2023-05-10T11:53:55;2.83;;;2.25;;
35324;SDS011;35135;47.510;19.036;2023-05-10T11:56:21;2.85;;;1.98;;
35324;SDS011;35135;47.510;19.036;2023-05-10T11:58:55;3.17;;;2.08;;
35324;SDS011;35135;47.510;19.036;2023-05-10T12:01:23;2.40;;;1.88;;
35324;SDS011;35135;47.510;19.036;2023-05-10T12:03:50;4.30;;;2.20;;
35324;SDS011;35135;47.510;19.036;2023-05-10T12:06:18;2.67;;;1.88;;
35324;SDS011;35135;47.510;19.036;2023-05-10T12:08:45;4.20;;;2.25;;
35324;SDS011;35135;47.510;19.036;2023-05-10T12:11:12;2.67;;;2.13;;
35324;SDS011;35135;47.510;19.036;2023-05-10T12:13:42;2.63;;;2.03;;
35324;SDS011;35135;47.510;19.036;2023-05-10T12:16:18;4.63;;;1.70;;
35324;SDS011;35135;47.510;19.036;2023-05-10T12:18:48;4.60;;;1.98;;
35324;SDS011;35135;47.510;19.036;2023-05-10T12:21:17;3.72;;;2.10;;
35324;SDS011;35135;47.510;19.036;2023-05-10T12:23:45;2.58;;;2.10;;
35324;SDS011;35135;47.510;19.036;2023-05-10T12:26:12;2.30;;;1.85;;
35324;SDS011;35135;47.510;19.036;2023-05-10T12:28:38;5.82;;;2.00;;
35324;SDS011;35135;47.510;19.036;2023-05-10T12:31:05;5.78;;;2.22;;
35324;SDS011;35135;47.510;19.036;2023-05-10T12:33:43;1.83;;;1.70;;
35324;SDS011;35135;47.510;19.036;2023-05-10T12:36:10;4.75;;;2.45;;
35324;SDS011;35135;47.510;19.036;2023-05-10T12:38:41;2.67;;;1.83;;
35324;SDS011;35135;47.510;19.036;2023-05-10T12:41:14;2.33;;;1.73;;
35324;SDS011;35135;47.510;19.036;2023-05-10T12:43:42;2.63;;;2.15;;
35324;SDS011;35135;47.510;19.036;2023-05-10T12:46:09;4.15;;;1.98;;
35324;SDS011;35135;47.510;19.036;2023-05-10T12:48:36;2.38;;;1.98;;
35324;SDS011;35135;47.510;19.036;2023-05-10T12:51:03;2.33;;;1.70;;
35324;SDS011;35135;47.510;19.036;2023-05-10T12:53:30;2.58;;;1.88;;
35324;SDS011;35135;47.510;19.036;2023-05-10T12:55:56;3.25;;;2.20;;
35324;SDS011;35135;47.510;19.036;2023-05-10T12:58:22;3.45;;;1.90;;
35324;SDS011;35135;47.510;19.036;2023-05-10T13:00:48;2.58;;;1.80;;
35324;SDS011;35135;47.510;19.036;2023-05-10T13:03:14;7.32;;;2.88;;
35324;SDS011;35135;47.510;19.036;2023-05-10T13:05:40;4.00;;;2.10;;
35324;SDS011;35135;47.510;19.036;2023-05-10T13:08:06;3.05;;;1.65;;
35324;SDS011;35135;47.510;19.036;2023-05-10T13:10:32;5.00;;;1.83;;
35324;SDS011;35135;47.510;19.036;2023-05-10T13:12:58;3.00;;;1.73;;
35324;SDS011;35135;47.510;19.036;2023-05-10T13:15:24;3.22;;;1.67;;
35324;SDS011;35135;47.510;19.036;2023-05-10T13:17:50;3.58;;;1.90;;
35324;SDS011;35135;47.510;19.036;2023-05-10T13:20:16;4.25;;;2.00;;
35324;SDS011;35135;47.510;19.036;2023-05-10T13:22:43;1.88;;;1.40;;
35324;SDS011;35135;47.510;19.036;2023-05-10T13:25:09;9.50;;;2.35;;
35324;SDS011;35135;47.510;19.036;2023-05-10T13:27:36;2.28;;;1.42;;
35324;SDS011;35135;47.510;19.036;2023-05-10T13:30:05;6.68;;;1.75;;
35324;SDS011;35135;47.510;19.036;2023-05-10T13:32:32;5.22;;;1.83;;
35324;SDS011;35135;47.510;19.036;2023-05-10T13:34:58;2.88;;;1.60;;
35324;SDS011;35135;47.510;19.036;2023-05-10T13:37:23;2.65;;;1.27;;
35324;SDS011;35135;47.510;19.036;2023-05-10T13:39:49;3.90;;;1.45;;
35324;SDS011;35135;47.510;19.036;2023-05-10T13:42:15;2.75;;;1.50;;
35324;SDS011;35135;47.510;19.036;2023-05-10T13:44:40;2.95;;;1.52;;
35324;SDS011;35135;47.510;19.036;2023-05-10T13:47:06;3.28;;;1.50;;
35324;SDS011;35135;47.510;19.036;2023-05-10T13:49:32;2.38;;;1.70;;
35324;SDS011;35135;47.510;19.036;2023-05-10T13:51:59;2.95;;;1.50;;
35324;SDS011;35135;47.510;19.036;2023-05-10T13:54:30;2.95;;;1.58;;
35324;SDS011;35135;47.510;19.036;2023-05-10T13:56:56;2.85;;;1.58;;
35324;SDS011;35135;47.510;19.036;2023-05-10T13:59:22;6.95;;;1.70;;
35324;SDS011;35135;47.510;19.036;2023-05-10T14:01:48;3.45;;;1.60;;
35324;SDS011;35135;47.510;19.036;2023-05-10T14:04:13;3.63;;;1.88;;
35324;SDS011;35135;47.510;19.036;2023-05-10T14:06:39;2.75;;;1.30;;
35324;SDS011;35135;47.510;19.036;2023-05-10T14:09:05;2.38;;;1.23;;
35324;SDS011;35135;47.510;19.036;2023-05-10T14:11:31;1.55;;;1.20;;
35324;SDS011;35135;47.510;19.036;2023-05-10T14:13:56;1.73;;;1.40;;
35324;SDS011;35135;47.510;19.036;2023-05-10T14:16:22;1.40;;;1.15;;
35324;SDS011;35135;47.510;19.036;2023-05-10T14:18:48;2.75;;;1.30;;
35324;SDS011;35135;47.510;19.036;2023-05-10T14:21:13;2.83;;;1.40;;
35324;SDS011;35135;47.510;19.036;2023-05-10T14:23:40;2.65;;;1.40;;
35324;SDS011;35135;47.510;19.036;2023-05-10T14:26:05;2.47;;;1.30;;
35324;SDS011;35135;47.510;19.036;2023-05-10T14:28:31;1.90;;;1.65;;
35324;SDS011;35135;47.510;19.036;2023-05-10T14:30:57;2.78;;;1.38;;
35324;SDS011;35135;47.510;19.036;2023-05-10T14:33:23;4.28;;;1.60;;
35324;SDS011;35135;47.510;19.036;2023-05-10T14:35:49;2.45;;;1.30;;
35324;SDS011;35135;47.510;19.036;2023-05-10T14:38:16;4.75;;;1.50;;
35324;SDS011;35135;47.510;19.036;2023-05-10T14:40:41;5.63;;;1.30;;
35324;SDS011;35135;47.510;19.036;2023-05-10T14:43:07;3.20;;;1.10;;
35324;SDS011;35135;47.510;19.036;2023-05-10T14:45:33;4.03;;;1.13;;
35324;SDS011;35135;47.510;19.036;2023-05-10T14:47:59;1.60;;;1.10;;
35324;SDS011;35135;47.510;19.036;2023-05-10T14:50:25;5.18;;;1.38;;
35324;SDS011;35135;47.510;19.036;2023-05-10T14:52:51;2.35;;;1.40;;
35324;SDS011;35135;47.510;19.036;2023-05-10T14:55:17;3.72;;;1.50;;
35324;SDS011;35135;47.510;19.036;2023-05-10T14:57:42;1.80;;;1.10;;
35324;SDS011;35135;47.510;19.036;2023-05-10T15:00:09;3.13;;;1.40;;
35324;SDS011;35135;47.510;19.036;2023-05-10T15:02:35;5.03;;;1.58;;